Time;durP1;ratioP1;P1;durP2;ratioP2;P2;SDS_P1;SDS_P2;PMS_P1;PMS_P2;Temp;Humidity;BMP_temperature;BMP_pressure;BME280_temperature;BME280_humidity;BME280_pressure;Samples;Min_cycle;Max_cycle;Signal;HPM_P1;HPM_P2
2021/10/21 06:00:26;;;;;;;34.15;4.22;;;13.40;99.90;;;;;;6153701;22;20718;-82
2021/10/21 06:02:53;;;;;;;24.08;4.15;;;13.40;99.90;;;;;;6271503;22;20404;-85
2021/10/21 06:05:22;;;;;;;22.88;3.70;;;13.40;99.90;;;;;;6270936;22;20077;-83
2021/10/21 06:07:50;;;;;;;29.52;4.60;;;13.50;99.90;;;;;;6273139;22;20023;-82
2021/10/21 06:10:17;;;;;;;21.73;3.25;;;13.50;99.90;;;;;;6272312;22;20024;-82
2021/10/21 06:12:48;;;;;;;28.20;3.08;;;13.50;99.90;;;;;;6272844;22;20012;-81
2021/10/21 06:15:17;;;;;;;18.77;3.17;;;13.50;99.90;;;;;;6272500;22;20077;-82
2021/10/21 06:17:45;;;;;;;21.88;3.50;;;13.50;99.90;;;;;;6273511;22;20023;-81
2021/10/21 06:20:15;;;;;;;17.50;3.00;;;13.50;99.90;;;;;;6272256;22;20028;-82
2021/10/21 06:22:42;;;;;;;18.80;2.90;;;13.50;99.90;;;;;;6273063;22;20019;-82
2021/10/21 06:25:11;;;;;;;18.90;3.15;;;13.50;99.90;;;;;;6272364;22;20342;-82
2021/10/21 06:27:38;;;;;;;27.48;4.00;;;13.50;99.90;;;;;;6273376;22;20062;-80
2021/10/21 06:30:06;;;;;;;22.95;4.07;;;13.50;99.90;;;;;;6272252;22;20081;-80
2021/10/21 06:32:34;;;;;;;20.50;3.72;;;13.50;99.90;;;;;;6272809;22;20020;-80
2021/10/21 06:35:02;;;;;;;23.35;3.72;;;13.50;99.90;;;;;;6272896;22;20069;-81
2021/10/21 06:37:30;;;;;;;33.40;3.90;;;13.50;99.90;;;;;;6274107;22;20093;-81
2021/10/21 06:39:57;;;;;;;27.23;3.85;;;13.50;99.90;;;;;;6274937;22;20477;-82
2021/10/21 06:42:24;;;;;;;26.63;4.20;;;13.60;99.90;;;;;;6273568;22;20500;-81
2021/10/21 06:44:51;;;;;;;21.73;3.85;;;13.60;99.90;;;;;;6274642;22;20089;-80
2021/10/21 06:47:19;;;;;;;27.83;3.90;;;13.60;99.90;;;;;;6273322;22;20020;-80
2021/10/21 06:49:46;;;;;;;28.65;4.20;;;13.60;99.90;;;;;;6274576;22;20026;-81
2021/10/21 06:52:12;;;;;;;24.48;3.95;;;13.70;99.90;;;;;;6274436;22;20024;-81
2021/10/21 06:54:39;;;;;;;26.85;4.13;;;13.70;99.90;;;;;;6274289;22;20019;-80
2021/10/21 06:57:06;;;;;;;22.38;3.45;;;13.70;99.90;;;;;;6273874;22;20074;-81
2021/10/21 06:59:34;;;;;;;26.53;4.20;;;13.70;99.90;;;;;;6274471;22;20024;-80
2021/10/21 07:02:01;;;;;;;27.67;4.38;;;13.80;99.90;;;;;;6274196;22;20258;-83
2021/10/21 07:04:29;;;;;;;30.95;3.58;;;13.80;99.90;;;;;;6274053;22;20016;-79
2021/10/21 07:07:02;;;;;;;24.13;4.07;;;13.90;99.90;;;;;;6274300;22;20365;-80
2021/10/21 07:09:29;;;;;;;29.95;4.55;;;13.90;99.90;;;;;;6246729;22;20077;-81
2021/10/21 07:12:14;;;;;;;31.60;4.13;;;13.90;99.90;;;;;;6273889;22;20077;-81
2021/10/21 07:14:41;;;;;;;19.65;3.25;;;13.90;99.90;;;;;;6274501;22;20031;-81
2021/10/21 07:17:08;;;;;;;24.73;3.78;;;13.80;99.90;;;;;;6274067;22;20016;-80
2021/10/21 07:19:35;;;;;;;25.23;4.57;;;13.90;99.90;;;;;;6274212;22;20465;-81
2021/10/21 07:22:02;;;;;;;21.63;3.38;;;13.90;99.90;;;;;;6274009;22;20474;-80
2021/10/21 07:24:28;;;;;;;22.58;3.67;;;13.90;99.90;;;;;;6273628;22;20477;-80
2021/10/21 07:26:56;;;;;;;27.95;3.97;;;13.90;99.90;;;;;;6274556;22;20016;-80
2021/10/21 07:29:23;;;;;;;19.05;3.35;;;13.90;99.90;;;;;;6273533;22;20024;-81
2021/10/21 07:31:50;;;;;;;27.77;3.80;;;13.90;99.90;;;;;;6273451;22;20069;-80
2021/10/21 07:34:17;;;;;;;25.58;3.28;;;13.90;99.90;;;;;;6271534;22;20023;-81
2021/10/21 07:36:44;;;;;;;24.08;3.67;;;13.90;99.90;;;;;;6272783;22;20077;-80
2021/10/21 07:39:12;;;;;;;27.15;4.20;;;13.90;99.90;;;;;;6272740;22;20024;-81
2021/10/21 07:41:38;;;;;;;27.57;4.27;;;13.90;99.90;;;;;;6271965;22;20050;-82
2021/10/21 07:44:05;;;;;;;27.60;4.20;;;13.80;99.90;;;;;;6272536;22;20246;-80
2021/10/21 07:46:34;;;;;;;27.77;3.92;;;13.80;99.90;;;;;;6272853;22;20066;-80
2021/10/21 07:49:02;;;;;;;23.67;4.07;;;13.80;99.90;;;;;;6273328;22;20030;-81
2021/10/21 07:51:31;;;;;;;28.45;3.90;;;13.80;99.90;;;;;;6272493;22;20077;-81
2021/10/21 07:53:58;;;;;;;;;;;13.80;99.90;;;;;;6273488;22;20019;-80
2021/10/21 07:56:27;;;;;;;28.48;4.80;;;13.70;99.90;;;;;;6272704;22;19915;-82
2021/10/21 07:58:54;;;;;;;16.38;2.90;;;13.70;99.90;;;;;;6273015;22;20023;-81
2021/10/21 08:01:21;;;;;;;12.65;2.17;;;13.70;99.90;;;;;;6272039;22;20092;-81
2021/10/21 08:03:48;;;;;;;17.00;2.55;;;13.70;99.90;;;;;;6273122;22;20356;-81
2021/10/21 08:06:14;;;;;;;15.93;2.40;;;13.70;99.90;;;;;;6273128;22;20019;-80
2021/10/21 08:08:41;;;;;;;12.63;2.53;;;13.60;99.90;;;;;;6273057;22;20023;-81
2021/10/21 08:11:08;;;;;;;14.75;2.60;;;13.60;99.90;;;;;;6270964;22;20539;-80
2021/10/21 08:13:35;;;;;;;26.40;3.42;;;13.60;99.90;;;;;;6272740;22;20027;-81
2021/10/21 08:16:02;;;;;;;22.50;3.58;;;13.60;99.90;;;;;;6273138;22;20020;-80
2021/10/21 08:18:29;;;;;;;28.05;3.63;;;13.70;99.90;;;;;;6273253;22;20354;-80
2021/10/21 08:20:56;;;;;;;27.00;4.25;;;13.70;99.90;;;;;;6272885;22;20101;-80
2021/10/21 08:23:23;;;;;;;33.97;4.82;;;13.80;99.90;;;;;;6271822;22;20024;-78
2021/10/21 08:25:50;;;;;;;29.17;4.47;;;13.90;99.90;;;;;;6273065;22;20069;-81
2021/10/21 08:28:17;;;;;;;30.25;4.70;;;13.90;99.90;;;;;;6271894;22;20081;-80
2021/10/21 08:30:44;;;;;;;25.17;4.20;;;13.90;99.90;;;;;;6273259;22;20070;-80
2021/10/21 08:33:13;;;;;;;29.42;4.47;;;13.90;99.90;;;;;;6271943;22;20027;-80
2021/10/21 08:35:40;;;;;;;27.35;3.90;;;13.90;99.90;;;;;;6272597;22;20920;-80
2021/10/21 08:38:07;;;;;;;22.88;3.67;;;13.90;99.90;;;;;;6271847;22;20020;-79
2021/10/21 08:40:36;;;;;;;33.33;5.35;;;14.00;99.90;;;;;;6245893;22;20354;-81
2021/10/21 08:43:06;;;;;;;;;;;14.00;99.90;;;;;;6273090;22;20065;-80
2021/10/21 08:45:34;;;;;;;25.33;3.85;;;14.00;99.90;;;;;;6272185;22;20253;-81
2021/10/21 08:48:06;;;;;;;23.95;3.83;;;14.10;99.90;;;;;;6272597;22;20101;-82
2021/10/21 08:50:35;;;;;;;28.52;3.88;;;14.20;99.90;;;;;;6272737;22;20016;-83
2021/10/21 08:53:03;;;;;;;25.20;4.05;;;14.30;99.90;;;;;;6272335;22;20077;-82
2021/10/21 08:55:30;;;;;;;18.38;3.60;;;14.20;99.90;;;;;;6271890;22;20015;-82
2021/10/21 08:57:57;;;;;;;18.35;3.17;;;14.20;99.90;;;;;;6272279;22;20046;-82
2021/10/21 09:00:24;;;;;;;18.23;2.67;;;14.10;99.90;;;;;;6272198;22;20114;-82
2021/10/21 09:02:54;;;;;;;17.27;2.17;;;14.10;99.90;;;;;;6270945;22;20065;-81
2021/10/21 09:05:36;;;;;;;22.27;2.78;;;14.00;99.90;;;;;;6272095;22;20102;-83
2021/10/21 09:08:09;;;;;;;16.00;2.22;;;14.00;99.90;;;;;;6272827;22;20019;-82
2021/10/21 09:10:47;;;;;;;9.77;1.77;;;13.90;99.90;;;;;;6272235;22;20077;-82
2021/10/21 09:13:30;;;;;;;10.13;1.70;;;14.00;99.90;;;;;;6271362;22;20393;-81
2021/10/21 09:16:00;;;;;;;10.80;1.85;;;14.00;99.90;;;;;;6272924;22;20050;-82
2021/10/21 09:18:42;;;;;;;7.60;1.33;;;14.00;99.90;;;;;;6271597;22;20019;-83
2021/10/21 09:21:35;;;;;;;7.57;1.50;;;14.10;99.90;;;;;;6271499;22;20026;-82
2021/10/21 09:24:30;;;;;;;8.80;1.00;;;14.10;99.90;;;;;;6272188;22;20016;-82
2021/10/21 09:27:09;;;;;;;9.90;1.50;;;14.10;99.90;;;;;;6271314;22;20008;-83
2021/10/21 09:29:37;;;;;;;4.82;0.93;;;14.20;99.90;;;;;;6271858;22;20015;-80
2021/10/21 09:32:09;;;;;;;6.88;1.35;;;14.20;99.90;;;;;;6271648;22;20020;-81
2021/10/21 09:34:47;;;;;;;7.43;1.10;;;14.30;99.90;;;;;;6272469;22;20019;-83
2021/10/21 09:37:35;;;;;;;8.68;1.40;;;14.30;99.90;;;;;;6271298;22;20069;-82
2021/10/21 09:40:22;;;;;;;7.53;1.35;;;14.30;99.90;;;;;;6272514;22;20046;-81
2021/10/21 09:42:55;;;;;;;6.00;1.00;;;14.30;99.90;;;;;;6272080;22;20015;-83
2021/10/21 09:45:23;;;;;;;5.90;1.20;;;14.40;99.90;;;;;;6269864;22;20081;-82
2021/10/21 09:47:56;;;;;;;7.38;1.40;;;14.40;99.90;;;;;;6272160;22;20077;-81
2021/10/21 09:50:27;;;;;;;7.32;1.10;;;14.40;99.90;;;;;;6271713;22;20433;-81
2021/10/21 09:53:22;;;;;;;8.27;1.02;;;14.40;99.90;;;;;;6272073;22;20020;-81
2021/10/21 09:56:04;;;;;;;9.20;1.10;;;14.40;99.90;;;;;;6271162;22;20408;-82
2021/10/21 09:58:39;;;;;;;4.60;1.00;;;14.40;99.90;;;;;;6272751;22;20089;-83
2021/10/21 10:01:14;;;;;;;8.40;1.42;;;14.50;99.90;;;;;;6271007;22;20023;-81
2021/10/21 10:03:46;;;;;;;6.03;0.88;;;14.50;99.90;;;;;;6271898;22;20019;-81
2021/10/21 10:06:18;;;;;;;9.80;1.23;;;14.50;99.90;;;;;;6271522;22;20481;-83
2021/10/21 10:08:46;;;;;;;7.57;1.50;;;14.50;99.90;;;;;;6272479;22;20020;-81
2021/10/21 10:11:19;;;;;;;5.63;1.40;;;14.60;99.90;;;;;;6272751;22;20016;-84
2021/10/21 10:13:47;;;;;;;5.47;1.58;;;14.60;99.90;;;;;;6274719;22;20026;-82
2021/10/21 10:16:14;;;;;;;8.60;1.45;;;14.70;99.90;;;;;;6273974;22;20020;-83
2021/10/21 10:18:44;;;;;;;8.20;1.20;;;14.80;99.90;;;;;;6274131;22;20020;-82
2021/10/21 10:21:17;;;;;;;15.68;1.40;;;14.80;99.90;;;;;;6273476;22;20370;-82
2021/10/21 10:23:54;;;;;;;8.50;1.10;;;14.80;99.90;;;;;;6274203;22;20020;-81
2021/10/21 10:26:43;;;;;;;8.52;1.40;;;14.80;99.90;;;;;;6273462;22;20027;-83
2021/10/21 10:29:14;;;;;;;5.65;1.45;;;14.80;99.90;;;;;;6273286;22;20058;-82
2021/10/21 10:31:54;;;;;;;4.78;1.58;;;14.80;99.90;;;;;;6273926;22;20016;-83
2021/10/21 10:34:33;;;;;;;8.38;1.35;;;14.90;99.90;;;;;;6246433;22;20023;-83
2021/10/21 10:37:12;;;;;;;9.73;1.55;;;15.00;99.90;;;;;;6272709;22;20024;-82
2021/10/21 10:39:47;;;;;;;7.90;1.20;;;15.10;99.90;;;;;;6273661;22;20012;-83
2021/10/21 10:42:15;;;;;;;9.50;1.40;;;15.20;99.90;;;;;;6273608;22;20024;-83
2021/10/21 10:44:48;;;;;;;7.25;1.50;;;15.30;99.90;;;;;;6273881;22;20404;-83
2021/10/21 10:47:15;;;;;;;8.27;1.30;;;15.20;99.90;;;;;;6273351;22;20023;-84
2021/10/21 10:49:43;;;;;;;6.30;1.40;;;15.20;99.90;;;;;;6273828;22;20076;-84
2021/10/21 10:52:12;;;;;;;8.70;2.03;;;15.20;99.90;;;;;;6273169;22;20023;-83
2021/10/21 10:54:39;;;;;;;9.60;1.70;;;15.30;99.90;;;;;;6273945;22;20016;-82
2021/10/21 10:57:07;;;;;;;4.93;1.25;;;15.30;99.90;;;;;;6249875;22;20016;-85
2021/10/21 10:59:36;;;;;;;8.13;1.33;;;15.30;99.90;;;;;;6269150;22;20020;-84
2021/10/21 11:02:25;;;;;;;5.90;0.98;;;15.40;99.90;;;;;;6233992;23;20020;-85
2021/10/21 11:04:52;;;;;;;11.15;1.67;;;15.50;99.90;;;;;;6238564;22;20020;-89
2021/10/21 11:07:22;;;;;;;7.90;1.13;;;15.50;99.90;;;;;;6241353;22;20020;-87
2021/10/21 11:09:51;;;;;;;5.20;1.02;;;15.60;99.90;;;;;;6265749;22;20062;-86
2021/10/21 11:12:22;;;;;;;7.90;1.17;;;15.70;99.90;;;;;;6240968;22;20039;-87
2021/10/21 11:14:56;;;;;;;15.05;1.55;;;15.70;99.90;;;;;;6265815;22;20035;-88
2021/10/21 11:17:42;;;;;;;5.82;1.33;;;15.70;99.90;;;;;;6240490;22;20027;-88
2021/10/21 11:20:28;;;;;;;14.25;1.58;;;15.60;99.90;;;;;;6240373;22;20028;-87
2021/10/21 11:22:55;;;;;;;8.02;1.63;;;15.60;99.90;;;;;;6240141;23;20017;-87
2021/10/21 11:25:33;;;;;;;12.07;1.50;;;15.60;99.90;;;;;;6265013;22;20081;-84
2021/10/21 11:28:00;;;;;;;12.13;1.40;;;15.60;99.90;;;;;;6243372;22;20082;-85
2021/10/21 11:30:34;;;;;;;9.10;1.77;;;15.60;99.90;;;;;;6243076;22;20020;-86
2021/10/21 11:33:09;;;;;;;7.63;1.70;;;15.70;99.90;;;;;;6241327;22;20019;-83
2021/10/21 11:35:40;;;;;;;7.43;1.30;;;15.80;99.90;;;;;;6243587;22;20517;-84
2021/10/21 11:38:15;;;;;;;14.20;1.92;;;15.90;99.90;;;;;;6242792;22;20020;-83
2021/10/21 11:40:45;;;;;;;10.32;1.58;;;16.00;99.90;;;;;;6243442;22;20020;-83
2021/10/21 11:43:22;;;;;;;11.68;1.98;;;15.90;99.90;;;;;;6242170;22;20020;-84
2021/10/21 11:46:01;;;;;;;9.23;1.60;;;15.80;99.90;;;;;;6243040;22;20551;-83
2021/10/21 11:48:33;;;;;;;8.63;1.67;;;15.60;99.90;;;;;;6242727;22;20057;-83
2021/10/21 11:51:12;;;;;;;9.77;1.55;;;15.30;99.90;;;;;;6242573;22;20024;-84
2021/10/21 11:53:40;;;;;;;10.60;1.95;;;15.30;99.90;;;;;;6242444;22;20016;-84
2021/10/21 11:56:07;;;;;;;9.65;1.75;;;15.30;99.90;;;;;;6242864;22;20020;-84
2021/10/21 11:58:38;;;;;;;11.30;2.03;;;15.40;99.90;;;;;;6242728;22;20020;-84
2021/10/21 12:01:09;;;;;;;9.43;1.75;;;15.30;99.90;;;;;;6250015;22;20020;-84
2021/10/21 12:03:42;;;;;;;7.45;1.60;;;15.20;99.90;;;;;;6273692;22;20032;-85
2021/10/21 12:06:14;;;;;;;11.55;1.83;;;15.20;99.90;;;;;;6273053;22;20023;-85
2021/10/21 12:08:54;;;;;;;10.98;1.80;;;15.20;99.90;;;;;;6273720;22;20011;-83
2021/10/21 12:11:23;;;;;;;10.45;2.05;;;15.30;99.90;;;;;;6272308;22;20016;-83
2021/10/21 12:13:50;;;;;;;9.52;1.40;;;15.40;99.90;;;;;;6273675;22;20035;-85
2021/10/21 12:16:21;;;;;;;8.57;1.92;;;15.50;99.90;;;;;;6246054;22;20099;-85
2021/10/21 12:19:11;;;;;;;10.00;2.05;;;15.50;99.90;;;;;;6249688;22;20019;-84
2021/10/21 12:21:41;;;;;;;8.55;1.65;;;15.50;99.90;;;;;;6273094;22;20038;-85
2021/10/21 12:24:19;;;;;;;9.55;1.42;;;15.50;99.90;;;;;;6272816;22;20020;-85
2021/10/21 12:26:54;;;;;;;10.95;1.55;;;15.40;99.90;;;;;;6273789;22;20069;-85
2021/10/21 12:29:24;;;;;;;8.27;1.40;;;15.30;99.90;;;;;;6272449;22;20023;-85
2021/10/21 12:31:50;;;;;;;12.00;1.85;;;15.30;99.90;;;;;;6273850;22;20470;-86
2021/10/21 12:34:28;;;;;;;7.93;1.23;;;15.20;99.90;;;;;;6245916;22;20027;-85
2021/10/21 12:36:55;;;;;;;11.48;1.88;;;15.10;99.90;;;;;;6273218;22;20023;-85
2021/10/21 12:39:26;;;;;;;10.63;1.65;;;15.10;99.90;;;;;;6272545;22;20024;-84
2021/10/21 12:41:57;;;;;;;7.65;1.60;;;15.20;99.90;;;;;;6273946;22;20024;-83
2021/10/21 12:44:34;;;;;;;7.05;1.38;;;15.20;99.90;;;;;;6246549;22;20077;-83
2021/10/21 12:47:22;;;;;;;6.10;1.30;;;15.10;99.90;;;;;;6273330;22;20020;-85
2021/10/21 12:50:16;;;;;;;7.63;1.00;;;15.20;99.90;;;;;;6273004;22;20464;-83
2021/10/21 12:52:46;;;;;;;4.68;0.90;;;15.10;99.90;;;;;;6244014;22;20451;-83
2021/10/21 12:55:23;;;;;;;7.47;1.30;;;15.00;99.90;;;;;;6272942;22;20475;-83
2021/10/21 12:57:59;;;;;;;6.03;0.90;;;15.00;99.90;;;;;;6273178;22;20392;-83
2021/10/21 13:00:34;;;;;;;4.63;1.00;;;15.10;99.90;;;;;;6272287;22;20089;-84
2021/10/21 13:03:14;;;;;;;2.88;0.50;;;15.20;99.90;;;;;;6273080;22;20019;-85
2021/10/21 13:05:41;;;;;;;2.33;0.38;;;15.20;99.90;;;;;;6272615;22;20023;-83
2021/10/21 13:08:09;;;;;;;0.73;0.30;;;15.00;99.90;;;;;;6271837;22;20500;-83
2021/10/21 13:10:55;;;;;;;2.83;0.40;;;14.80;99.90;;;;;;6272454;22;20353;-85
2021/10/21 13:13:29;;;;;;;0.73;0.35;;;14.60;99.90;;;;;;6271359;22;20114;-84
2021/10/21 13:15:58;;;;;;;2.90;0.40;;;14.30;99.90;;;;;;6272569;22;20081;-83
2021/10/21 13:18:24;;;;;;;2.88;0.43;;;14.20;99.90;;;;;;6245754;22;20461;-83
2021/10/21 13:20:52;;;;;;;2.85;0.50;;;14.00;99.90;;;;;;6272915;22;20046;-84
2021/10/21 13:23:19;;;;;;;6.22;0.63;;;14.00;99.90;;;;;;6271741;22;20093;-85
2021/10/21 13:25:47;;;;;;;3.63;0.57;;;13.90;99.90;;;;;;6245947;22;20061;-85
2021/10/21 13:28:16;;;;;;;5.82;0.60;;;13.80;99.90;;;;;;6271983;22;20070;-82
2021/10/21 13:30:43;;;;;;;;;;;13.70;99.90;;;;;;6273048;22;20019;-83
2021/10/21 13:33:11;;;;;;;2.55;0.93;;;13.50;99.90;;;;;;6271557;22;20315;-82
2021/10/21 13:35:39;;;;;;;3.53;0.60;;;13.40;99.90;;;;;;6272910;22;20038;-84
2021/10/21 13:38:06;;;;;;;3.13;0.50;;;13.40;99.90;;;;;;6245603;22;20019;-84
2021/10/21 13:40:36;;;;;;;5.63;0.75;;;13.40;99.90;;;;;;6246137;22;20246;-82
2021/10/21 13:43:03;;;;;;;7.60;1.13;;;13.50;99.90;;;;;;6272355;22;20470;-84
2021/10/21 13:45:30;;;;;;;4.28;0.95;;;13.50;99.90;;;;;;6273721;22;20011;-85
2021/10/21 13:47:57;;;;;;;4.75;0.98;;;13.50;99.90;;;;;;6247923;22;20015;-85
2021/10/21 13:50:24;;;;;;;4.57;0.70;;;13.50;99.90;;;;;;6274348;22;20097;-83
2021/10/21 13:52:50;;;;;;;4.30;0.80;;;13.50;99.90;;;;;;6274885;22;20069;-82
2021/10/21 13:55:17;;;;;;;6.75;1.02;;;13.50;99.90;;;;;;6273602;22;20024;-82
2021/10/21 13:57:44;;;;;;;5.55;0.93;;;13.40;99.90;;;;;;6274521;22;20019;-83
2021/10/21 14:00:14;;;;;;;4.40;1.52;;;13.30;99.90;;;;;;6273453;22;20051;-84
2021/10/21 14:02:41;;;;;;;4.13;0.93;;;13.40;99.90;;;;;;6274341;22;20020;-85
2021/10/21 14:05:09;;;;;;;5.25;1.00;;;13.50;99.90;;;;;;6246773;22;20027;-83
2021/10/21 14:07:36;;;;;;;5.05;0.93;;;13.50;99.90;;;;;;6247941;22;20085;-85
2021/10/21 14:10:03;;;;;;;7.75;1.10;;;13.40;99.90;;;;;;6274157;22;20012;-83
2021/10/21 14:12:30;;;;;;;5.90;0.90;;;13.30;99.90;;;;;;6247687;22;20024;-84
2021/10/21 14:14:57;;;;;;;4.75;1.10;;;13.40;99.90;;;;;;6275041;22;20525;-83
2021/10/21 14:17:24;;;;;;;4.35;1.00;;;13.40;99.90;;;;;;6273685;22;20449;-85
2021/10/21 14:19:53;;;;;;;4.68;1.17;;;13.40;99.90;;;;;;6274481;22;20016;-85
2021/10/21 14:22:20;;;;;;;4.63;0.80;;;13.40;99.90;;;;;;6273760;22;20081;-82
2021/10/21 14:24:48;;;;;;;6.30;0.98;;;13.30;99.90;;;;;;6247912;22;20069;-83
2021/10/21 14:27:18;;;;;;;4.75;0.75;;;13.30;99.90;;;;;;6273980;22;20024;-85
2021/10/21 14:29:46;;;;;;;4.10;1.55;;;13.20;99.90;;;;;;6275246;22;20012;-84
2021/10/21 14:32:14;;;;;;;5.67;1.80;;;13.30;99.90;;;;;;6274273;22;20023;-83
2021/10/21 14:34:41;;;;;;;3.85;1.10;;;13.30;99.90;;;;;;6274358;22;20020;-85
2021/10/21 14:37:08;;;;;;;5.55;0.80;;;13.40;99.90;;;;;;6273636;22;20050;-84
2021/10/21 14:39:35;;;;;;;3.53;1.10;;;13.50;99.90;;;;;;6274129;22;20015;-85
2021/10/21 14:42:02;;;;;;;5.45;1.05;;;13.50;99.90;;;;;;6247396;22;20081;-84
2021/10/21 14:44:29;;;;;;;5.63;1.45;;;13.40;99.90;;;;;;6273747;22;20027;-83
2021/10/21 14:46:56;;;;;;;3.92;0.80;;;13.40;99.90;;;;;;6274154;22;20457;-84
2021/10/21 14:49:23;;;;;;;4.70;0.70;;;13.40;99.90;;;;;;6273076;22;20408;-84
2021/10/21 14:51:50;;;;;;;4.18;0.77;;;13.30;99.90;;;;;;6274219;22;20519;-84
2021/10/21 14:54:17;;;;;;;4.95;1.20;;;13.30;99.90;;;;;;6273564;22;20023;-85
2021/10/21 14:56:45;;;;;;;4.00;0.90;;;13.40;99.90;;;;;;6274518;22;20019;-85
2021/10/21 14:59:12;;;;;;;4.57;0.82;;;13.40;99.90;;;;;;6246922;22;20119;-85
2021/10/21 15:01:39;;;;;;;4.97;0.90;;;13.30;99.90;;;;;;6271982;22;20020;-84
2021/10/21 15:04:07;;;;;;;4.32;0.77;;;13.30;99.90;;;;;;6273769;22;20098;-83
2021/10/21 15:25:11;;;;;;;5.10;1.00;;;13.10;99.90;;;;;;6148316;23;20025;-82
2021/10/21 15:27:40;;;;;;;9.23;1.30;;;13.00;99.90;;;;;;6149578;23;20086;-84
2021/10/21 15:30:09;;;;;;;9.90;1.60;;;12.90;99.90;;;;;;6123977;23;20021;-82
2021/10/21 15:32:36;;;;;;;7.47;1.17;;;12.70;99.90;;;;;;6149412;23;20411;-82
2021/10/21 15:35:04;;;;;;;7.15;1.55;;;12.70;99.90;;;;;;6124988;23;20371;-83
2021/10/21 15:37:33;;;;;;;7.25;1.17;;;12.60;99.90;;;;;;6123608;23;20560;-83
2021/10/21 15:40:00;;;;;;;11.65;1.52;;;12.50;99.90;;;;;;6124242;23;20546;-83
2021/10/21 15:42:30;;;;;;;5.82;1.40;;;12.50;99.90;;;;;;6148337;23;20048;-84
2021/10/21 15:45:16;;;;;;;7.93;1.60;;;12.40;99.90;;;;;;6148817;23;20032;-85
2021/10/21 15:47:47;;;;;;;6.72;1.45;;;12.40;99.90;;;;;;6148813;23;20017;-84
2021/10/21 16:09:52;;;;;;;13.07;2.10;;;12.40;99.90;;;;;;6272114;22;20019;-84
2021/10/21 16:12:19;;;;;;;12.05;1.85;;;12.50;99.90;;;;;;6244465;22;20024;-84
2021/10/21 16:14:59;;;;;;;6.80;1.58;;;12.50;99.90;;;;;;6271631;22;20066;-81
2021/10/21 16:17:37;;;;;;;13.43;1.80;;;12.50;99.90;;;;;;6271506;22;20070;-83
2021/10/21 16:20:11;;;;;;;12.32;1.98;;;12.50;99.90;;;;;;6272403;22;20057;-84
2021/10/21 16:25:31;;;;;;;12.75;2.72;;;12.40;99.90;;;;;;6271450;22;20528;-85
2021/10/21 16:27:58;;;;;;;12.18;3.00;;;12.50;99.90;;;;;;6271894;22;20023;-85
2021/10/21 16:30:25;;;;;;;9.70;2.70;;;12.50;99.90;;;;;;6270552;22;20046;-84
2021/10/21 16:32:52;;;;;;;12.02;2.10;;;12.40;99.90;;;;;;6272927;22;20012;-84
2021/10/21 16:35:19;;;;;;;11.68;2.40;;;12.40;99.90;;;;;;6271688;22;20069;-83
2021/10/21 16:37:46;;;;;;;12.82;2.10;;;12.50;99.90;;;;;;6273083;22;20397;-84
2021/10/21 16:40:14;;;;;;;10.63;1.98;;;12.40;99.90;;;;;;6272109;22;20543;-85
2021/10/21 16:42:44;;;;;;;12.95;1.80;;;12.40;99.90;;;;;;6246169;22;20125;-84
2021/10/21 16:45:12;;;;;;;9.00;1.50;;;12.40;99.90;;;;;;6245294;22;20027;-84
2021/10/21 16:47:39;;;;;;;14.05;2.47;;;12.30;99.90;;;;;;6245913;22;20473;-85
2021/10/21 16:50:08;;;;;;;11.57;2.35;;;12.30;99.90;;;;;;6271924;22;20015;-82
2021/10/21 16:52:39;;;;;;;10.98;2.10;;;12.20;99.90;;;;;;6272217;22;20042;-81
2021/10/21 16:55:07;;;;;;;8.90;1.90;;;12.20;99.90;;;;;;6271973;22;20011;-82
2021/10/21 16:57:34;;;;;;;8.53;1.80;;;12.10;99.90;;;;;;6271526;22;20335;-81
2021/10/21 17:00:01;;;;;;;14.25;2.15;;;12.10;99.90;;;;;;6272602;22;20019;-80
2021/10/21 17:02:28;;;;;;;7.85;1.45;;;12.00;99.90;;;;;;6244692;22;20023;-81
2021/10/21 17:04:55;;;;;;;13.90;1.85;;;11.90;99.90;;;;;;6272018;22;20011;-83
2021/10/21 17:07:22;;;;;;;11.63;1.95;;;11.90;99.90;;;;;;6271394;22;20507;-81
2021/10/21 17:09:50;;;;;;;13.68;2.10;;;11.90;99.90;;;;;;6272425;22;20540;-83
2021/10/21 17:12:17;;;;;;;10.88;2.08;;;11.80;99.90;;;;;;6271507;22;20019;-82
2021/10/21 17:14:44;;;;;;;10.55;1.85;;;11.80;99.90;;;;;;6272384;22;20020;-82
2021/10/21 17:17:11;;;;;;;14.95;2.00;;;11.80;99.90;;;;;;6271833;22;20069;-83
2021/10/21 17:19:41;;;;;;;10.85;1.95;;;11.80;99.90;;;;;;6271957;22;20020;-82
2021/10/21 17:22:08;;;;;;;7.53;1.80;;;11.70;99.90;;;;;;6271622;22;20335;-82
2021/10/21 17:24:35;;;;;;;8.63;1.80;;;11.70;99.90;;;;;;6272765;22;20016;-81
2021/10/21 17:27:03;;;;;;;9.27;2.22;;;11.70;99.90;;;;;;6272177;22;20571;-81
2021/10/21 17:29:30;;;;;;;14.40;2.15;;;11.70;99.90;;;;;;6270017;22;20023;-80
2021/10/21 17:31:58;;;;;;;14.02;2.08;;;11.60;99.90;;;;;;6270872;22;20034;-83
2021/10/21 17:34:25;;;;;;;10.73;2.63;;;11.60;99.90;;;;;;6270336;22;20019;-82
2021/10/21 17:36:53;;;;;;;9.90;2.40;;;11.50;99.90;;;;;;6272463;22;20489;-81
2021/10/21 17:39:21;;;;;;;12.27;1.80;;;11.40;99.90;;;;;;6271529;22;20020;-80
2021/10/21 17:41:49;;;;;;;12.20;2.22;;;11.40;99.90;;;;;;6272203;22;20074;-80
2021/10/21 17:44:17;;;;;;;9.98;2.20;;;11.30;99.90;;;;;;6269629;22;20023;-81
2021/10/21 17:46:52;;;;;;;13.05;1.90;;;11.20;99.90;;;;;;6269478;22;20023;-81
2021/10/21 17:49:19;;;;;;;7.63;1.70;;;11.20;99.90;;;;;;6264189;22;20099;-82
2021/10/21 17:51:46;;;;;;;11.18;1.92;;;11.10;99.90;;;;;;6265596;22;20024;-80
2021/10/21 17:54:13;;;;;;;13.68;1.92;;;11.00;99.90;;;;;;6237402;22;20023;-79
2021/10/21 17:56:40;;;;;;;21.25;2.50;;;11.00;99.90;;;;;;6237593;22;20366;-80
2021/10/21 17:59:07;;;;;;;13.82;2.08;;;10.90;99.90;;;;;;6264273;22;20015;-80
2021/10/21 18:01:34;;;;;;;13.27;2.10;;;10.80;99.90;;;;;;6266266;22;20018;-80
2021/10/21 18:04:03;;;;;;;12.27;2.35;;;10.70;99.90;;;;;;6238792;22;20032;-81
2021/10/21 18:06:35;;;;;;;12.93;2.80;;;10.70;99.90;;;;;;6239687;22;20058;-79
2021/10/21 18:09:03;;;;;;;9.40;1.90;;;10.70;99.90;;;;;;6266058;22;20047;-80
2021/10/21 18:11:31;;;;;;;11.80;2.28;;;10.60;99.90;;;;;;6240227;22;20042;-80
2021/10/21 18:13:58;;;;;;;16.45;2.33;;;10.60;99.90;;;;;;6239360;22;20130;-81
2021/10/21 18:16:25;;;;;;;11.57;2.17;;;10.50;99.90;;;;;;6265223;22;20031;-80
2021/10/21 18:18:52;;;;;;;12.60;1.90;;;10.40;99.90;;;;;;6266097;22;20073;-79
2021/10/21 18:21:19;;;;;;;13.13;1.80;;;10.40;99.90;;;;;;6266176;22;20470;-80
2021/10/21 18:23:47;;;;;;;13.30;2.40;;;10.40;99.90;;;;;;6266347;22;20611;-80
2021/10/21 18:26:14;;;;;;;9.88;2.20;;;10.40;99.90;;;;;;6266078;22;20055;-83
2021/10/21 18:28:44;;;;;;;15.95;2.83;;;10.30;99.90;;;;;;6239826;22;20035;-80
2021/10/21 18:31:12;;;;;;;16.60;2.70;;;10.30;99.90;;;;;;6265294;22;20024;-82
2021/10/21 18:33:42;;;;;;;18.00;2.92;;;10.30;99.90;;;;;;6267390;22;20082;-81
2021/10/21 18:36:09;;;;;;;12.98;2.40;;;10.20;99.90;;;;;;6266481;22;20023;-83
2021/10/21 18:38:36;;;;;;;10.75;2.22;;;10.20;99.90;;;;;;6268217;22;20015;-84
2021/10/21 18:41:04;;;;;;;22.05;2.58;;;10.10;99.90;;;;;;6267992;22;20019;-81
2021/10/21 18:43:32;;;;;;;16.92;2.67;;;10.10;99.90;;;;;;6267665;22;20023;-82
2021/10/21 18:46:00;;;;;;;21.27;2.85;;;9.90;99.90;;;;;;6268154;22;20039;-83
2021/10/21 18:48:27;;;;;;;16.75;2.75;;;9.90;99.90;;;;;;6267687;22;20015;-82
2021/10/21 18:50:55;;;;;;;13.90;2.55;;;9.80;99.90;;;;;;6242647;22;20393;-81
2021/10/21 18:53:22;;;;;;;17.15;3.28;;;9.80;99.90;;;;;;6266075;22;20027;-82
2021/10/21 18:55:49;;;;;;;13.85;2.72;;;9.70;99.90;;;;;;6268658;22;20046;-83
2021/10/21 18:58:17;;;;;;;21.60;3.90;;;9.60;99.90;;;;;;6241046;22;20102;-84
2021/10/21 19:00:45;;;;;;;13.23;2.35;;;9.60;99.90;;;;;;6241651;22;20011;-82
2021/10/21 19:03:16;;;;;;;12.02;2.20;;;9.50;99.90;;;;;;6267593;22;20477;-80
2021/10/21 19:05:43;;;;;;;15.88;2.35;;;9.50;99.90;;;;;;6241097;22;20020;-82
2021/10/21 19:08:11;;;;;;;12.25;2.97;;;9.40;99.90;;;;;;6267663;22;20019;-82
2021/10/21 19:10:39;;;;;;;16.25;2.60;;;9.40;99.90;;;;;;6243073;22;20107;-82
2021/10/21 19:13:06;;;;;;;11.93;2.10;;;9.30;99.90;;;;;;6267813;22;20708;-83
2021/10/21 19:15:33;;;;;;;16.20;2.70;;;9.30;99.90;;;;;;6269231;22;20030;-81
2021/10/21 19:18:03;;;;;;;16.98;2.78;;;9.30;99.90;;;;;;6269301;22;20016;-81
2021/10/21 19:20:30;;;;;;;16.13;2.67;;;9.30;99.90;;;;;;6242154;22;20023;-81
2021/10/21 19:22:57;;;;;;;12.38;2.45;;;9.30;99.90;;;;;;6268977;22;20019;-82
2021/10/21 19:25:25;;;;;;;16.10;3.08;;;9.20;99.90;;;;;;6241693;22;20024;-81
2021/10/21 19:27:52;;;;;;;9.20;2.10;;;9.20;99.90;;;;;;6242317;22;20461;-84
2021/10/21 19:30:19;;;;;;;13.85;2.50;;;9.10;99.90;;;;;;6266567;22;20027;-84
2021/10/21 19:32:47;;;;;;;14.57;2.72;;;9.10;99.90;;;;;;6268016;22;20020;-83
2021/10/21 19:35:14;;;;;;;14.25;2.28;;;9.10;99.90;;;;;;6239578;22;20020;-84
2021/10/21 19:37:41;;;;;;;13.35;2.80;;;9.10;99.90;;;;;;6239588;22;20528;-84